createdAt,value
2023-01-18T00:00:17.542Z,8.93
2023-01-18T00:02:53.652Z,8.70
2023-01-18T00:05:27.683Z,9.13
2023-01-18T00:07:58.865Z,9.40
2023-01-18T00:10:30.930Z,8.87
2023-01-18T00:13:01.572Z,9.50
2023-01-18T00:15:36.990Z,9.90
2023-01-18T00:18:08.818Z,9.70
2023-01-18T00:20:39.490Z,9.17
2023-01-18T00:23:12.033Z,10.73
2023-01-18T00:25:45.054Z,9.27
2023-01-18T00:28:15.957Z,8.43
2023-01-18T00:30:46.981Z,8.67
2023-01-18T00:33:18.745Z,9.83
2023-01-18T00:36:03.468Z,10.30
2023-01-18T00:38:35.636Z,10.93
2023-01-18T00:41:09.514Z,9.27
2023-01-18T00:43:41.344Z,9.70
2023-01-18T00:46:14.557Z,11.60
2023-01-18T00:48:45.574Z,11.43
2023-01-18T00:51:20.158Z,10.60
2023-01-18T00:53:52.413Z,12.20
2023-01-18T00:56:24.087Z,11.33
2023-01-18T00:58:54.581Z,12.43
2023-01-18T01:01:25.376Z,11.50
2023-01-18T01:04:14.036Z,12.17
2023-01-18T01:06:45.099Z,12.27
2023-01-18T01:09:19.812Z,12.60
2023-01-18T01:12:09.904Z,13.50
2023-01-18T01:15:01.634Z,12.23
2023-01-18T01:17:54.289Z,11.70
2023-01-18T01:20:45.189Z,11.87
2023-01-18T01:23:36.436Z,11.77
2023-01-18T01:26:09.155Z,11.60
2023-01-18T01:28:43.563Z,12.57
2023-01-18T01:31:17.731Z,12.73
2023-01-18T01:33:49.805Z,13.27
2023-01-18T01:36:24.608Z,13.03
2023-01-18T01:38:56.007Z,12.03
2023-01-18T01:41:29.511Z,11.60
2023-01-18T01:44:06.832Z,12.47
2023-01-18T01:46:43.378Z,12.33
2023-01-18T01:49:20.243Z,11.47
2023-01-18T01:51:53.713Z,10.93
2023-01-18T01:54:33.362Z,12.20
2023-01-18T01:57:12.821Z,12.90
2023-01-18T01:59:56.593Z,12.90
2023-01-18T02:02:27.951Z,12.20
2023-01-18T02:05:00.121Z,11.80
2023-01-18T02:07:32.779Z,11.50
2023-01-18T02:10:05.452Z,12.00
2023-01-18T02:12:38.314Z,11.53
2023-01-18T02:15:13.162Z,11.93
2023-01-18T02:17:56.517Z,13.53
2023-01-18T02:20:55.698Z,11.03
2023-01-18T02:23:45.850Z,10.77
2023-01-18T02:26:38.696Z,11.53
2023-01-18T02:29:18.453Z,11.87
2023-01-18T02:31:58.002Z,12.20
2023-01-18T02:34:43.919Z,11.73
2023-01-18T02:37:23.339Z,10.63
2023-01-18T02:40:18.892Z,12.10
2023-01-18T02:43:09.016Z,11.83
2023-01-18T02:46:03.396Z,11.73
2023-01-18T02:48:38.810Z,10.97
2023-01-18T02:51:09.401Z,11.43
2023-01-18T02:53:43.111Z,12.40
2023-01-18T02:56:16.629Z,12.43
2023-01-18T02:59:05.114Z,10.90
2023-01-18T03:01:47.705Z,12.93
2023-01-18T03:04:23.881Z,12.20
2023-01-18T03:06:57.665Z,12.30
2023-01-18T03:09:30.345Z,11.10
2023-01-18T03:12:04.035Z,11.27
2023-01-18T03:14:57.421Z,12.13
2023-01-18T03:17:39.753Z,11.43
2023-01-18T03:20:16.196Z,11.57
2023-01-18T03:23:10.635Z,10.17
2023-01-18T03:25:51.514Z,11.17
2023-01-18T03:28:58.276Z,11.20
2023-01-18T03:32:01.972Z,10.43
2023-01-18T03:34:56.534Z,10.37
2023-01-18T03:37:34.635Z,11.80
2023-01-18T03:40:08.320Z,11.33
2023-01-18T03:42:43.643Z,13.77
2023-01-18T03:45:23.225Z,10.30
2023-01-18T03:47:56.491Z,10.07
2023-01-18T03:50:48.248Z,9.80
2023-01-18T03:53:24.472Z,8.93
2023-01-18T03:55:58.286Z,8.80
2023-01-18T03:58:32.130Z,9.73
2023-01-18T04:01:06.522Z,9.93
2023-01-18T04:03:37.859Z,9.40
2023-01-18T04:06:09.703Z,9.80
2023-01-18T04:08:40.167Z,10.27
2023-01-18T04:11:12.045Z,8.57
2023-01-18T04:13:42.678Z,9.40
2023-01-18T04:16:14.482Z,9.30
2023-01-18T04:18:45.112Z,8.43
2023-01-18T04:21:16.730Z,9.53
2023-01-18T04:23:47.260Z,7.63
2023-01-18T04:26:20.356Z,8.07
2023-01-18T04:28:52.391Z,7.63
2023-01-18T04:31:24.151Z,7.13
2023-01-18T04:33:55.507Z,7.40
2023-01-18T04:36:28.606Z,6.97
2023-01-18T04:39:00.814Z,7.03
2023-01-18T04:41:33.053Z,7.53
2023-01-18T04:44:03.568Z,6.40
2023-01-18T04:46:34.808Z,7.47
2023-01-18T04:49:15.673Z,7.80
2023-01-18T04:51:49.055Z,7.60
2023-01-18T04:54:19.679Z,7.30
2023-01-18T04:56:50.213Z,11.23
2023-01-18T04:59:20.843Z,8.00
2023-01-18T05:01:52.921Z,10.20
2023-01-18T05:04:23.327Z,7.53
2023-01-18T05:06:53.763Z,8.47
2023-01-18T05:09:25.769Z,8.37
2023-01-18T05:11:56.248Z,8.70
2023-01-18T05:14:26.778Z,7.80
2023-01-18T05:16:57.249Z,8.07
2023-01-18T05:19:30.156Z,8.40
2023-01-18T05:22:00.745Z,7.43
2023-01-18T05:24:31.194Z,9.00
2023-01-18T05:27:05.410Z,8.27
2023-01-18T05:29:36.152Z,8.60
2023-01-18T05:32:07.099Z,8.97
2023-01-18T05:34:37.579Z,10.13
2023-01-18T05:37:08.127Z,8.13
2023-01-18T05:39:38.688Z,9.70
2023-01-18T05:42:10.516Z,8.93
2023-01-18T05:44:41.034Z,8.33
2023-01-18T05:47:14.303Z,7.77
2023-01-18T05:49:44.898Z,7.87
2023-01-18T05:52:24.639Z,8.43
2023-01-18T05:54:55.131Z,8.07
2023-01-18T05:57:29.324Z,8.33
2023-01-18T06:00:03.101Z,8.23
2023-01-18T06:02:33.709Z,7.70
2023-01-18T06:05:04.413Z,9.00
2023-01-18T06:07:35.000Z,9.27
2023-01-18T06:10:07.422Z,9.50
2023-01-18T06:12:38.950Z,8.90
2023-01-18T06:15:10.526Z,7.83
2023-01-18T06:17:41.291Z,7.67
2023-01-18T06:20:13.123Z,7.93
2023-01-18T06:22:45.411Z,7.23
2023-01-18T06:25:19.454Z,8.53
2023-01-18T06:27:49.914Z,8.83
2023-01-18T06:30:22.767Z,7.90
2023-01-18T06:32:53.340Z,6.93
2023-01-18T06:35:25.612Z,6.30
2023-01-18T06:37:56.513Z,6.30
2023-01-18T06:40:28.324Z,5.93
2023-01-18T06:43:01.791Z,6.33
2023-01-18T06:45:37.633Z,6.43
2023-01-18T06:48:08.234Z,6.10
2023-01-18T06:50:42.200Z,6.83
2023-01-18T06:53:17.634Z,6.60
2023-01-18T06:55:57.206Z,7.80
2023-01-18T06:58:30.530Z,6.20
2023-01-18T07:01:03.198Z,5.60
2023-01-18T07:03:44.067Z,5.97
2023-01-18T07:06:17.066Z,6.20
2023-01-18T07:08:52.825Z,6.77
2023-01-18T07:11:26.317Z,5.53
2023-01-18T07:14:01.122Z,7.03
2023-01-18T07:16:32.612Z,5.83
2023-01-18T07:19:05.491Z,6.93
2023-01-18T07:21:39.429Z,7.30
2023-01-18T07:24:15.378Z,7.50
2023-01-18T07:26:49.233Z,8.57
2023-01-18T07:29:20.758Z,9.07
2023-01-18T07:31:51.661Z,8.40
2023-01-18T07:34:23.866Z,7.70
2023-01-18T07:36:55.760Z,6.40
2023-01-18T07:39:26.615Z,6.47
2023-01-18T07:41:57.761Z,5.90
2023-01-18T07:44:30.515Z,6.53
2023-01-18T07:47:04.313Z,6.40
2023-01-18T07:49:35.131Z,5.60
2023-01-18T07:52:06.721Z,6.00
2023-01-18T07:54:37.577Z,6.93
2023-01-18T07:57:09.663Z,6.40
2023-01-18T07:59:41.781Z,5.53
2023-01-18T08:02:14.669Z,5.77
2023-01-18T08:04:50.968Z,5.40
2023-01-18T08:07:21.681Z,5.90
2023-01-18T08:09:55.658Z,6.30
2023-01-18T08:12:27.233Z,6.50
2023-01-18T08:15:01.040Z,6.13
2023-01-18T08:17:35.080Z,7.90
2023-01-18T08:20:13.307Z,5.93
2023-01-18T08:22:43.936Z,5.87
2023-01-18T08:25:14.561Z,7.63
2023-01-18T08:27:48.139Z,6.77
2023-01-18T08:30:20.975Z,5.07
2023-01-18T08:32:56.333Z,6.77
2023-01-18T08:35:29.868Z,5.43
2023-01-18T08:38:01.478Z,6.23
2023-01-18T08:40:32.950Z,4.90
2023-01-18T08:43:04.885Z,5.40
2023-01-18T08:45:35.652Z,4.80
2023-01-18T08:48:09.029Z,4.93
2023-01-18T08:50:39.599Z,5.20
2023-01-18T08:53:12.395Z,4.97
2023-01-18T08:55:43.069Z,5.33
2023-01-18T08:58:13.847Z,5.30
2023-01-18T09:00:45.976Z,5.30
2023-01-18T09:03:18.328Z,5.67
2023-01-18T09:05:50.421Z,6.80
2023-01-18T09:08:20.899Z,6.30
2023-01-18T09:10:52.659Z,6.80
2023-01-18T09:13:23.275Z,6.08
2023-01-18T09:16:02.549Z,6.20
2023-01-18T09:18:34.628Z,6.65
2023-01-18T09:21:10.433Z,7.40
2023-01-18T09:23:43.653Z,6.30
2023-01-18T09:26:17.627Z,6.10
2023-01-18T09:28:55.700Z,5.77
2023-01-18T09:31:30.693Z,5.57
2023-01-18T09:34:18.581Z,6.17
2023-01-18T09:36:37.848Z,6.37
2023-01-18T09:39:09.095Z,5.67
2023-01-18T09:41:45.592Z,6.73
2023-01-18T09:44:28.870Z,6.90
2023-01-18T09:47:08.277Z,6.00
2023-01-18T09:49:50.328Z,6.30
2023-01-18T09:52:32.320Z,5.13
2023-01-18T09:55:21.094Z,6.00
2023-01-18T09:58:00.752Z,5.87
2023-01-18T10:00:37.888Z,5.80
2023-01-18T10:03:22.426Z,5.83
2023-01-18T10:06:00.571Z,5.77
2023-01-18T10:08:31.383Z,5.17
2023-01-18T10:11:04.975Z,9.37
2023-01-18T10:13:59.975Z,5.97
2023-01-18T10:16:36.471Z,5.25
2023-01-18T10:19:13.530Z,5.67
2023-01-18T10:22:08.361Z,5.67
2023-01-18T10:24:57.675Z,5.60
2023-01-18T10:27:58.258Z,6.80
2023-01-18T10:30:57.375Z,5.30
2023-01-18T10:33:32.156Z,5.22
2023-01-18T10:36:07.560Z,5.80
2023-01-18T10:38:52.152Z,5.30
2023-01-18T10:41:28.283Z,6.85
2023-01-18T10:44:03.476Z,4.80
2023-01-18T10:46:36.407Z,5.60
2023-01-18T10:49:09.692Z,6.07
2023-01-18T10:51:40.525Z,5.57
2023-01-18T10:54:26.676Z,5.33
2023-01-18T10:57:10.028Z,6.00
2023-01-18T10:59:44.221Z,5.57
2023-01-18T11:02:24.091Z,5.20
2023-01-18T11:04:59.058Z,5.90
2023-01-18T11:07:30.499Z,5.47
2023-01-18T11:10:03.959Z,5.83
2023-01-18T11:12:48.234Z,5.10
2023-01-18T11:15:26.075Z,5.13
2023-01-18T11:18:09.514Z,6.13
2023-01-18T11:20:53.242Z,6.13
2023-01-18T11:23:38.561Z,6.33
2023-01-18T11:26:23.527Z,5.87
2023-01-18T11:28:56.971Z,6.50
2023-01-18T11:31:35.674Z,5.80
2023-01-18T11:34:07.836Z,5.97
2023-01-18T11:36:43.852Z,6.27
2023-01-18T11:39:32.533Z,6.87
2023-01-18T11:42:30.315Z,6.50
2023-01-18T11:45:09.270Z,5.93
2023-01-18T11:47:42.748Z,5.87
2023-01-18T11:50:27.823Z,6.67
2023-01-18T11:53:05.497Z,5.78
2023-01-18T11:55:46.579Z,5.90
2023-01-18T11:58:24.299Z,6.45
2023-01-18T12:01:01.884Z,5.00
2023-01-18T12:03:55.045Z,6.43
2023-01-18T12:06:41.523Z,5.80
2023-01-18T12:09:30.739Z,5.97
2023-01-18T12:12:24.280Z,4.80
2023-01-18T12:15:21.639Z,5.08
2023-01-18T12:18:13.701Z,5.25
2023-01-18T12:21:07.743Z,5.10
2023-01-18T12:23:57.667Z,5.27
2023-01-18T12:26:39.974Z,4.93
2023-01-18T12:29:24.226Z,5.33
2023-01-18T12:32:32.845Z,5.92
2023-01-18T12:35:24.025Z,4.60
2023-01-18T12:38:19.357Z,4.60
2023-01-18T12:41:26.763Z,4.73
2023-01-18T12:44:10.995Z,4.55
2023-01-18T12:46:51.018Z,4.17
2023-01-18T12:49:23.610Z,6.03
2023-01-18T12:52:13.000Z,4.07
2023-01-18T12:54:47.035Z,4.00
2023-01-18T12:57:22.031Z,5.10
2023-01-18T13:00:10.527Z,4.50
2023-01-18T13:02:45.754Z,5.37
2023-01-18T13:05:41.898Z,5.77
2023-01-18T13:08:18.169Z,5.90
2023-01-18T13:10:50.844Z,9.63
2023-01-18T13:13:24.994Z,8.07
2023-01-18T13:16:00.703Z,6.40
2023-01-18T13:18:42.399Z,6.80
2023-01-18T13:21:25.254Z,6.83
2023-01-18T13:24:16.903Z,6.47
2023-01-18T13:26:48.583Z,6.47
2023-01-18T13:29:29.561Z,6.80
2023-01-18T13:32:03.318Z,6.10
2023-01-18T13:34:47.641Z,6.70
2023-01-18T13:37:15.284Z,7.23
2023-01-18T13:39:49.406Z,6.63
2023-01-18T13:42:25.330Z,6.60
2023-01-18T13:45:15.905Z,6.55
2023-01-18T13:47:56.717Z,7.13
2023-01-18T13:50:35.879Z,7.20
2023-01-18T13:53:15.704Z,7.67
2023-01-18T13:56:09.195Z,8.00
2023-01-18T13:58:42.262Z,7.33
2023-01-18T14:01:15.824Z,8.30
2023-01-18T14:03:55.883Z,8.10
2023-01-18T14:06:41.220Z,7.53
2023-01-18T14:09:15.046Z,7.47
2023-01-18T14:11:48.978Z,7.37
2023-01-18T14:14:25.063Z,7.20
2023-01-18T14:17:07.596Z,7.20
2023-01-18T14:20:00.305Z,7.30
2023-01-18T14:22:49.122Z,6.83
2023-01-18T14:25:59.038Z,6.70
2023-01-18T14:28:50.758Z,5.97
2023-01-18T14:31:25.266Z,6.00
2023-01-18T14:33:57.563Z,5.80
2023-01-18T14:36:32.061Z,6.40
2023-01-18T14:39:12.389Z,6.87
2023-01-18T14:41:50.719Z,7.23
2023-01-18T14:44:24.873Z,6.10
2023-01-18T14:47:05.944Z,6.63
2023-01-18T14:49:37.553Z,7.10
2023-01-18T14:52:08.695Z,7.30
2023-01-18T14:54:42.440Z,7.13
2023-01-18T14:57:17.027Z,7.13
2023-01-18T14:59:57.089Z,7.70
2023-01-18T15:02:33.945Z,7.10
2023-01-18T15:05:21.131Z,6.92
2023-01-18T15:07:55.872Z,6.73
2023-01-18T15:10:26.799Z,6.15
2023-01-18T15:13:00.645Z,5.83
2023-01-18T15:15:35.430Z,6.37
2023-01-18T15:18:11.055Z,6.00
2023-01-18T15:20:56.807Z,6.80
2023-01-18T15:23:29.504Z,7.27
2023-01-18T15:26:05.095Z,7.00
2023-01-18T15:28:42.116Z,6.87
2023-01-18T15:31:17.184Z,7.67
2023-01-18T15:33:48.038Z,6.57
2023-01-18T15:36:22.518Z,7.80
2023-01-18T15:38:56.674Z,7.43
2023-01-18T15:41:27.921Z,7.03
2023-01-18T15:43:58.728Z,8.10
2023-01-18T15:46:30.155Z,8.67
2023-01-18T15:49:07.644Z,8.07
2023-01-18T15:51:56.884Z,9.53
2023-01-18T15:54:31.910Z,10.80
2023-01-18T15:57:20.212Z,9.80
2023-01-18T15:59:52.990Z,10.13
2023-01-18T16:02:25.394Z,8.87
2023-01-18T16:05:21.757Z,9.20
2023-01-18T16:08:09.524Z,9.57
2023-01-18T16:10:31.315Z,7.77
2023-01-18T16:13:25.648Z,9.40
2023-01-18T16:16:13.755Z,8.87
2023-01-18T16:19:05.557Z,8.15
2023-01-18T16:21:45.116Z,9.07
2023-01-18T16:24:21.639Z,8.90
2023-01-18T16:26:53.907Z,9.93
2023-01-18T16:29:25.730Z,9.57
2023-01-18T16:31:59.395Z,9.17
2023-01-18T16:34:29.814Z,10.60
2023-01-18T16:37:01.867Z,10.57
2023-01-18T16:39:33.471Z,10.13
2023-01-18T16:42:07.302Z,10.05
2023-01-18T16:44:38.464Z,10.60
2023-01-18T16:47:13.411Z,10.33
2023-01-18T16:49:49.116Z,9.87
2023-01-18T16:52:21.095Z,10.03
2023-01-18T16:54:53.241Z,9.03
2023-01-18T16:57:26.662Z,9.57
2023-01-18T16:59:57.016Z,10.60
2023-01-18T17:02:27.707Z,9.90
2023-01-18T17:04:58.233Z,10.20
2023-01-18T17:07:30.627Z,9.93
2023-01-18T17:10:02.000Z,10.10
2023-01-18T17:12:32.996Z,11.60
2023-01-18T17:15:03.650Z,11.07
2023-01-18T17:17:41.805Z,11.20
2023-01-18T17:20:19.909Z,10.10
2023-01-18T17:22:54.042Z,11.30
2023-01-18T17:25:26.605Z,11.40
2023-01-18T17:27:59.293Z,10.77
2023-01-18T17:30:30.054Z,11.33
2023-01-18T17:33:03.391Z,10.97
2023-01-18T17:35:34.189Z,11.43
2023-01-18T17:38:11.864Z,11.07
2023-01-18T17:40:42.605Z,11.27
2023-01-18T17:43:28.410Z,10.40
2023-01-18T17:45:59.848Z,11.40
2023-01-18T17:48:24.855Z,10.60
2023-01-18T17:50:59.633Z,11.50
2023-01-18T17:53:33.754Z,12.25
2023-01-18T17:56:12.583Z,11.20
2023-01-18T17:58:45.706Z,11.97
2023-01-18T18:01:20.956Z,12.40
2023-01-18T18:03:53.063Z,11.35
2023-01-18T18:06:31.326Z,11.40
2023-01-18T18:09:01.971Z,11.47
2023-01-18T18:11:37.067Z,11.97
2023-01-18T18:14:09.889Z,11.47
2023-01-18T18:16:43.535Z,11.30
2023-01-18T18:19:17.355Z,11.33
2023-01-18T18:21:53.002Z,10.50
2023-01-18T18:24:25.305Z,12.23
2023-01-18T18:26:55.898Z,12.20
2023-01-18T18:29:29.322Z,12.47
2023-01-18T18:31:59.895Z,11.07
2023-01-18T18:34:32.266Z,11.60
2023-01-18T18:37:06.481Z,10.87
2023-01-18T18:39:38.613Z,12.33
2023-01-18T18:42:12.536Z,12.47
2023-01-18T18:44:47.155Z,13.10
2023-01-18T18:47:18.922Z,12.13
2023-01-18T18:49:51.013Z,12.43
2023-01-18T18:52:21.659Z,12.67
2023-01-18T18:54:56.616Z,12.23
2023-01-18T18:57:29.420Z,13.37
2023-01-18T19:00:01.003Z,13.37
2023-01-18T19:02:32.096Z,13.07
2023-01-18T19:05:06.982Z,13.30
2023-01-18T19:07:39.715Z,13.33
2023-01-18T19:10:14.912Z,12.77
2023-01-18T19:12:47.206Z,13.67
2023-01-18T19:15:19.310Z,12.67
2023-01-18T19:17:51.814Z,13.77
2023-01-18T19:20:35.010Z,13.10
2023-01-18T19:22:59.854Z,13.03
2023-01-18T19:25:32.804Z,13.03
2023-01-18T19:28:08.184Z,11.97
2023-01-18T19:30:44.309Z,12.67
2023-01-18T19:33:16.961Z,12.97
2023-01-18T19:35:48.816Z,11.77
2023-01-18T19:38:19.901Z,11.87
2023-01-18T19:40:52.795Z,11.63
2023-01-18T19:43:24.193Z,11.47
2023-01-18T19:45:55.527Z,12.17
2023-01-18T19:48:27.535Z,12.17
2023-01-18T19:51:20.721Z,13.00
2023-01-18T19:53:48.168Z,13.27
2023-01-18T19:56:20.240Z,12.57
2023-01-18T19:58:53.608Z,12.07
2023-01-18T20:01:36.556Z,12.73
2023-01-18T20:04:00.630Z,11.80
2023-01-18T20:06:41.425Z,11.50
2023-01-18T20:09:22.168Z,13.80
2023-01-18T20:11:56.787Z,11.50
2023-01-18T20:14:41.000Z,12.83
2023-01-18T20:17:08.511Z,13.23
2023-01-18T20:19:40.198Z,13.17
2023-01-18T20:22:13.178Z,12.33
2023-01-18T20:24:47.807Z,12.00
2023-01-18T20:27:22.593Z,12.20
2023-01-18T20:29:54.422Z,12.50
2023-01-18T20:32:28.524Z,11.87
2023-01-18T20:35:08.578Z,12.50
2023-01-18T20:37:36.034Z,12.60
2023-01-18T20:40:11.893Z,13.40
2023-01-18T20:42:48.102Z,12.83
2023-01-18T20:45:20.361Z,13.87
2023-01-18T20:47:59.199Z,15.60
2023-01-18T20:50:28.352Z,17.10
2023-01-18T20:52:59.241Z,15.47
2023-01-18T20:55:30.293Z,15.13
2023-01-18T20:58:02.806Z,16.17
2023-01-18T21:00:34.891Z,13.80
2023-01-18T21:03:06.600Z,13.97
2023-01-18T21:05:37.070Z,13.77
2023-01-18T21:08:07.948Z,14.27
2023-01-18T21:10:43.966Z,14.33
2023-01-18T21:13:14.711Z,15.80
2023-01-18T21:15:47.776Z,16.83
2023-01-18T21:18:18.371Z,17.70
2023-01-18T21:20:57.976Z,15.23
2023-01-18T21:23:35.140Z,17.07
2023-01-18T21:26:13.062Z,16.53
2023-01-18T21:28:44.936Z,17.03
2023-01-18T21:31:16.669Z,18.67
2023-01-18T21:33:52.348Z,20.63
2023-01-18T21:36:28.233Z,16.23
2023-01-18T21:39:01.604Z,17.23
2023-01-18T21:41:52.469Z,16.77
2023-01-18T21:44:41.009Z,14.47
2023-01-18T21:47:12.907Z,16.03
2023-01-18T21:50:21.967Z,14.30
2023-01-18T21:52:57.908Z,13.90
2023-01-18T21:55:28.643Z,13.53
2023-01-18T21:58:19.701Z,12.97
2023-01-18T22:00:51.389Z,13.50
2023-01-18T22:03:23.681Z,13.20
2023-01-18T22:05:59.792Z,13.37
2023-01-18T22:08:31.874Z,13.30
2023-01-18T22:11:03.810Z,12.90
2023-01-18T22:13:35.097Z,13.77
2023-01-18T22:16:07.451Z,14.50
2023-01-18T22:18:39.069Z,12.90
2023-01-18T22:21:13.278Z,12.70
2023-01-18T22:23:46.121Z,11.93
2023-01-18T22:26:17.281Z,17.40
2023-01-18T22:28:49.537Z,12.60
2023-01-18T22:31:22.107Z,12.83
2023-01-18T22:33:54.381Z,10.37
2023-01-18T22:36:28.171Z,11.90
2023-01-18T22:39:01.137Z,11.70
2023-01-18T22:41:31.803Z,12.67
2023-01-18T22:44:05.361Z,12.20
2023-01-18T22:46:37.139Z,12.70
2023-01-18T22:49:09.698Z,12.17
2023-01-18T22:51:45.386Z,13.50
2023-01-18T22:54:19.145Z,12.00
2023-01-18T22:56:52.301Z,10.20
2023-01-18T22:59:25.040Z,11.53
2023-01-18T23:01:57.766Z,11.30
2023-01-18T23:04:37.135Z,11.20
2023-01-18T23:07:04.565Z,11.93
2023-01-18T23:09:37.142Z,11.87
2023-01-18T23:12:12.082Z,10.87
2023-01-18T23:15:01.933Z,10.97
2023-01-18T23:17:40.115Z,11.43
2023-01-18T23:20:16.181Z,10.70
2023-01-18T23:22:48.855Z,11.10
2023-01-18T23:25:24.544Z,10.87
2023-01-18T23:27:56.151Z,12.77
2023-01-18T23:30:28.276Z,11.10
2023-01-18T23:32:59.194Z,12.23
2023-01-18T23:35:34.300Z,10.87
2023-01-18T23:38:07.426Z,10.83
2023-01-18T23:40:58.050Z,10.27
2023-01-18T23:43:49.643Z,11.13
2023-01-18T23:46:39.658Z,10.70
2023-01-18T23:49:28.199Z,9.93
2023-01-18T23:52:17.005Z,11.40
2023-01-18T23:54:49.005Z,10.97
2023-01-18T23:57:19.694Z,9.83
2023-01-18T23:59:51.762Z,10.47
